CST,Max TemperatureF,Mean TemperatureF,Min TemperatureF,Max Dew PointF,MeanDew PointF,Min DewpointF,Max Humidity, Mean Humidity, Min Humidity, Max Sea Level PressureIn, Mean Sea Level PressureIn, Min Sea Level PressureIn, Max VisibilityMiles, Mean VisibilityMiles, Min VisibilityMiles, Max Wind SpeedMPH, Mean Wind SpeedMPH, Max Gust SpeedMPH,PrecipitationIn, CloudCover, Events, WindDirDegrees
2013-12-1,24,22,21,23,21,19,100,92,86,30.13,30.04,29.90,10,6,2,5,0,,0.00,8,Snow,221
2013-12-2,30,26,21,28,23,19,100,93,86,29.89,29.78,29.72,10,5,1,7,2,,0.12,8,Snow,70
2013-12-3,30,22,12,28,21,10,100,90,80,29.95,29.84,29.73,10,5,1,17,8,25,0.01,8,Snow,75
2013-12-4,19,16,12,16,13,10,100,91,86,29.94,29.67,29.35,10,4,1,13,8,22,0.13,8,Snow,35
2013-12-5,15,8,0,12,3,-6,93,82,72,30.04,29.68,29.35,10,5,1,20,10,31,0.01,7,Snow,268
2013-12-6,0,-6,-14,-6,-12,-18,85,79,66,30.40,30.24,30.04,10,10,10,13,9,18,0.00,1,,264
2013-12-7,-5,-12,-20,-15,-19,-26,84,77,65,30.46,30.41,30.37,10,9,2,12,6,16,0.00,1,Snow,236
2013-12-8,6,-13,-32,3,-16,-38,92,79,68,30.38,30.18,29.91,10,6,1,8,1,,0.00,4,Snow,191
2013-12-9,5,-4,-14,1,-10,-18,92,79,65,29.90,29.79,29.73,10,8,1,18,6,24,0.00,3,Snow,245
2013-12-10,-4,-16,-27,-11,-18,-35,84,78,65,30.07,29.84,29.72,10,8,1,13,3,20,0.00,2,,253
2013-12-11,-4,-13,-22,-13,-19,-27,84,76,65,30.30,30.20,30.08,10,10,7,12,6,20,0.00,0,,249
2013-12-12,1,-10,-20,-4,-12,-26,84,75,66,30.14,30.08,30.05,10,8,1,12,4,18,0.00,6,Snow,283
2013-12-13,-5,-10,-14,-15,-17,-20,84,72,60,30.35,30.27,30.15,10,10,10,8,3,,0.00,2,,21
2013-12-14,3,-3,-9,0,-8,-17,92,81,71,30.32,30.09,29.91,10,6,0,9,2,,0.01,7,Snow,337
2013-12-15,-5,-16,-27,-11,-21,-35,84,76,65,30.04,30.00,29.94,10,10,10,8,4,,0.00,0,,317
2013-12-16,6,-8,-23,1,-6,-29,92,81,72,30.01,29.81,29.68,10,7,0,12,4,20,0.01,6,Snow,199
2013-12-17,17,5,-7,16,-1,-11,100,81,67,29.94,29.79,29.65,10,9,1,15,3,24,0.00,5,Snow,294
2013-12-18,21,4,-14,10,-2,-18,100,82,58,29.92,29.72,29.57,10,10,2,13,2,17,0.00,3,,137
2013-12-19,12,5,-2,7,-3,-8,85,78,66,30.14,30.04,29.74,10,9,2,15,6,24,0.00,4,Snow,350
2013-12-20,15,-2,-18,9,-5,-24,92,83,73,30.08,29.92,29.80,10,9,2,7,1,,0.00,3,Snow,226
2013-12-21,15,8,0,12,6,-4,92,85,79,30.03,29.91,29.79,10,6,2,9,1,,0.00,8,Snow,25
2013-12-22,5,0,-5,1,-5,-11,85,81,77,30.20,30.08,29.99,10,4,2,8,5,,0.01,8,Snow,28
2013-12-23,-4,-16,-27,-11,-18,-33,84,75,65,30.40,30.33,30.21,10,9,4,7,3,,0.00,3,Snow,19
2013-12-24,10,-10,-31,5,-11,-36,92,76,68,30.34,30.19,29.98,10,8,2,14,4,21,0.00,4,Snow,184
2013-12-25,15,8,1,7,2,-4,85,79,67,29.98,29.94,29.90,10,7,2,14,6,18,0.00,8,Snow,279
2013-12-26,8,-6,-20,0,-13,-26,92,79,62,30.08,30.03,29.97,10,10,2,6,1,,0.00,0,,251
2013-12-27,33,8,-16,28,16,-20,100,88,77,30.05,29.84,29.67,10,9,4,13,4,20,0.00,8,,243
2013-12-28,28,14,-2,28,17,-6,100,92,78,30.08,29.86,29.75,10,6,2,14,3,21,0.01,8,Snow,19
2013-12-29,-2,-17,-32,-8,-22,-38,85,75,59,30.21,30.14,30.09,10,10,7,12,6,20,0.00,1,,311
2013-12-30,-5,-20,-34,-15,-30,-42,84,72,60,30.12,30.07,30.04,10,10,5,7,1,,0.00,0,,278
2013-12-31,-11,-24,-36,-20,-33,-44,83,70,59,30.31,30.21,30.02,10,10,5,10,2,,0.00,0,,283